Time,TemperatureF,DewpointF,PressureIn,WindDirection,WindDirectionDegrees,WindSpeedMPH,WindSpeedGustMPH,Humidity,HourlyPrecipIn,Conditions,Clouds,dailyrainin,SoftwareType,DateUTC
2013-07-08 00:00:00,54.0,-99.9,-100.00,West,262,92.0,-999.0,-999,-99.99,,,0.00,,2013-07-08 06:00:00,
2013-07-08 00:43:00,54.0,-99.9,-100.00,West,262,92.0,-999.0,-999,-99.99,,,0.00,,2013-07-08 06:43:00,
2013-07-08 00:53:00,54.0,-99.9,-100.00,West,262,92.0,-999.0,-999,-99.99,,,0.00,,2013-07-08 06:53:00,
2013-07-08 01:00:00,55.0,-99.9,-100.00,North,-999,-999.0,-999.0,-999,-99.99,,,0.00,,2013-07-08 07:00:00,
2013-07-08 02:00:00,56.0,-99.9,-100.00,West,261,89.0,-999.0,-999,-99.99,,,0.00,,2013-07-08 08:00:00,
2013-07-08 02:53:00,56.0,-99.9,-100.00,West,261,89.0,-999.0,-999,-99.99,,,0.00,,2013-07-08 08:53:00,
2013-07-08 03:00:00,56.0,-99.9,-100.00,WSW,257,89.0,-999.0,-999,-99.99,,,0.00,,2013-07-08 09:00:00,
2013-07-08 03:53:00,56.0,-99.9,-100.00,WSW,257,89.0,-999.0,-999,-99.99,,,0.00,,2013-07-08 09:53:00,
2013-07-08 04:00:00,56.0,-99.9,-100.00,WSW,248,90.0,-999.0,-999,-99.99,,,0.00,,2013-07-08 10:00:00,
2013-07-08 04:53:00,56.0,-99.9,-100.00,WSW,248,90.0,-999.0,-999,-99.99,,,0.00,,2013-07-08 10:53:00,
2013-07-08 05:00:00,57.0,-99.9,-100.00,South,188,69.0,-999.0,-999,-99.99,,,0.00,,2013-07-08 11:00:00,
2013-07-08 06:00:00,56.0,-99.9,-100.00,South,191,66.0,-999.0,-999,-99.99,,,0.00,,2013-07-08 12:00:00,
2013-07-08 07:00:00,56.0,-99.9,-100.00,SSW,199,70.0,-999.0,-999,-99.99,,,0.00,,2013-07-08 13:00:00,
2013-07-08 08:00:00,61.0,-99.9,-100.00,South,187,72.0,-999.0,-999,-99.99,,,0.00,,2013-07-08 14:00:00,
2013-07-08 08:53:00,61.0,-99.9,-100.00,South,187,72.0,-999.0,-999,-99.99,,,0.00,,2013-07-08 14:53:00,
2013-07-08 09:00:00,61.0,-99.9,-100.00,North,-999,-999.0,-999.0,-999,-99.99,,,0.00,,2013-07-08 15:00:00,
2013-07-08 09:53:00,61.0,-99.9,-100.00,North,-999,-999.0,-999.0,-999,-99.99,,,0.00,,2013-07-08 15:53:00,
2013-07-08 10:00:00,65.0,-99.9,-100.00,South,174,66.0,-999.0,-999,-99.99,,,0.00,,2013-07-08 16:00:00,
2013-07-08 10:43:00,65.0,-99.9,-100.00,South,174,66.0,-999.0,-999,-99.99,,,0.00,,2013-07-08 16:43:00,
2013-07-08 13:00:00,72.0,-99.9,-100.00,ESE,104,39.0,-999.0,-999,-99.99,,,0.00,,2013-07-08 19:00:00,
2013-07-08 14:00:00,70.0,-99.9,-100.00,North,-999,-999.0,-999.0,-999,-99.99,,,0.00,,2013-07-08 20:00:00,
2013-07-08 16:00:00,75.0,-99.9,-100.00,East,88,34.0,-999.0,-999,-99.99,,,0.00,,2013-07-08 22:00:00,
2013-07-08 17:00:00,71.0,-99.9,-100.00,East,97,38.0,-999.0,-999,-99.99,,,0.00,,2013-07-08 23:00:00,
2013-07-08 18:00:00,66.0,-99.9,-100.00,SSE,154,71.0,-999.0,-999,-99.99,,,0.00,,2013-07-09 00:00:00,
2013-07-08 19:00:00,-999.0,-99.9,-100.00,SW,228,91.0,-999.0,-999,-99.99,,,0.00,,2013-07-09 01:00:00,